KGLW/GLW METAR and TAF weather

Enter ICAO airport designator
Station Type Date Time Source
KGLW METAR 2022/06/25 23:15 UTC NOAA

KGLW 252315Z AUTO 00000KT 10SM CLR 33/21 A3000 RMK AO2 T03290211


Station Type Date Time Source
KGLW Decoded METAR 2022/06/25 23:15 UTC NOAA

Glasgow, Glasgow Municipal Airport, KY, United States (KGLW) 37-01-54N 085-57-13W
Jun 25, 2022 - 07:15 PM EDT / 2022.06.25 2315 UTC
Wind: Calm:0
Visibility: 10 mile(s):0
Sky conditions: clear
Temperature: 91.2 F (32.9 C)
Heat index: 96.4 F (35.8 C):1
Dew Point: 70.0 F (21.1 C)
Relative Humidity: 49%
Pressure (altimeter): 30 in. Hg (1015 hPa)
ob: KGLW 252315Z AUTO 00000KT 10SM CLR 33/21 A3000 RMK AO2 T03290211
cycle: 23

Station Type Date Time Source
KGLW TAF UTC NOAA

Error!

Example: see airport list